Time;durP1;ratioP1;P1;durP2;ratioP2;P2;SDS_P1;SDS_P2;PMS_P1;PMS_P2;Temp;Humidity;BMP_temperature;BMP_pressure;BME280_temperature;BME280_humidity;BME280_pressure;Samples;Min_cycle;Max_cycle;Signal;HPM_P1;HPM_P2
2022/03/01 00:00:18;;;;;;;2.33;1.83;;;1.60;99.90;;;;;;5094629;28;20735;-75
2022/03/01 00:02:44;;;;;;;2.73;1.43;;;1.70;99.90;;;;;;5088286;28;20176;-76
2022/03/01 00:05:09;;;;;;;0.87;0.87;;;1.80;99.90;;;;;;5091376;28;20185;-78
2022/03/01 00:07:35;;;;;;;1.10;1.10;;;1.90;99.90;;;;;;5072853;28;20542;-76
2022/03/01 00:10:01;;;;;;;1.27;1.17;;;2.00;99.90;;;;;;5079580;28;20566;-76
2022/03/01 00:12:26;;;;;;;2.03;1.93;;;1.90;99.90;;;;;;5066727;28;20278;-76
2022/03/01 00:14:52;;;;;;;0.20;0.20;;;2.00;99.90;;;;;;5094542;28;20236;-75
2022/03/01 00:17:18;;;;;;;1.43;1.37;;;2.00;99.90;;;;;;5093511;28;20203;-76
2022/03/01 00:19:43;;;;;;;2.43;2.23;;;2.10;99.90;;;;;;5094077;28;20176;-76
2022/03/01 00:22:09;;;;;;;0.93;0.93;;;2.20;99.90;;;;;;5094229;28;20660;-76
2022/03/01 00:24:34;;;;;;;0.50;0.50;;;2.20;99.90;;;;;;5094227;28;20180;-75
2022/03/01 00:27:00;;;;;;;2.63;2.53;;;2.00;99.90;;;;;;5093977;28;20177;-76
2022/03/01 00:29:25;;;;;;;2.87;2.70;;;1.90;99.90;;;;;;5094343;28;20187;-76
2022/03/01 00:31:51;;;;;;;0.77;0.77;;;1.80;99.90;;;;;;5086346;28;20200;-77
2022/03/01 00:34:16;;;;;;;3.67;3.33;;;1.60;99.90;;;;;;5094016;28;20602;-76
2022/03/01 00:36:42;;;;;;;1.23;1.23;;;1.40;99.90;;;;;;5075974;28;20171;-76
2022/03/01 00:39:08;;;;;;;1.07;0.80;;;1.20;99.90;;;;;;5091567;28;20247;-76
2022/03/01 00:41:34;;;;;;;3.00;2.80;;;1.20;99.90;;;;;;5063463;28;20769;-76
2022/03/01 00:44:00;;;;;;;1.40;1.40;;;1.20;99.90;;;;;;5072144;28;21577;-77
2022/03/01 00:46:26;;;;;;;7.10;2.90;;;1.20;99.90;;;;;;5075681;28;20192;-76
2022/03/01 00:48:57;;;;;;;2.03;1.90;;;1.10;99.90;;;;;;5075703;28;20192;-77
2022/03/01 00:51:24;;;;;;;0.87;0.87;;;1.00;99.90;;;;;;5093693;28;20192;-77
2022/03/01 00:53:50;;;;;;;0.80;0.80;;;0.90;99.90;;;;;;5093356;28;20548;-77
2022/03/01 00:56:16;;;;;;;0.93;0.93;;;0.80;99.90;;;;;;5075651;28;20180;-77
2022/03/01 00:58:42;;;;;;;0.93;0.93;;;0.80;99.90;;;;;;5093660;28;20185;-76
2022/03/01 01:01:08;;;;;;;0.40;0.40;;;0.70;99.90;;;;;;5072655;28;20609;-76
2022/03/01 01:03:33;;;;;;;0.50;0.50;;;0.70;99.90;;;;;;5071987;28;20625;-76
2022/03/01 01:05:59;;;;;;;1.27;1.17;;;0.60;99.90;;;;;;5093503;28;20176;-76
2022/03/01 01:08:24;;;;;;;6.50;1.23;;;0.50;99.90;;;;;;5093338;28;20547;-76
2022/03/01 01:10:50;;;;;;;3.40;3.10;;;0.40;99.90;;;;;;5057104;28;20204;-75
2022/03/01 01:13:16;;;;;;;0.70;0.70;;;0.40;99.90;;;;;;5090588;28;20180;-75
2022/03/01 01:15:43;;;;;;;2.40;1.53;;;0.40;99.90;;;;;;5074984;28;20214;-75
2022/03/01 01:18:09;;;;;;;2.10;2.00;;;0.40;99.90;;;;;;5092093;28;20192;-76
2022/03/01 01:20:35;;;;;;;2.23;2.13;;;0.60;99.90;;;;;;5101131;22;20299;-77
2022/03/01 01:23:00;;;;;;;0.80;0.80;;;0.80;99.90;;;;;;5016395;28;20182;-75
2022/03/01 01:25:26;;;;;;;6.40;1.90;;;0.70;99.90;;;;;;5015929;28;20195;-74
2022/03/01 01:27:55;;;;;;;1.30;1.30;;;0.60;99.90;;;;;;5033679;28;20252;-75
2022/03/01 01:30:27;;;;;;;1.60;1.50;;;0.60;99.90;;;;;;5033619;28;20689;-75
2022/03/01 01:32:53;;;;;;;1.60;1.30;;;0.70;99.90;;;;;;5033366;28;20213;-75
2022/03/01 01:35:23;;;;;;;1.80;1.70;;;0.90;99.90;;;;;;5033630;28;20206;-76
2022/03/01 01:37:49;;;;;;;6.13;2.47;;;1.00;99.90;;;;;;5049288;28;20265;-73
2022/03/01 01:40:18;;;;;;;3.80;3.63;;;0.90;99.90;;;;;;5040491;28;20174;-75
2022/03/01 01:42:44;;;;;;;1.57;1.33;;;0.80;99.90;;;;;;5034642;28;20180;-73
2022/03/01 01:45:10;;;;;;;2.80;2.63;;;0.80;99.90;;;;;;5017420;28;20217;-75
2022/03/01 01:47:36;;;;;;;0.67;0.67;;;0.80;99.90;;;;;;5017406;28;20182;-76
2022/03/01 01:50:03;;;;;;;0.93;0.93;;;0.70;99.90;;;;;;5033316;28;20182;-74
2022/03/01 01:52:29;;;;;;;5.00;3.80;;;0.60;99.90;;;;;;5032557;28;20178;-74
2022/03/01 01:54:55;;;;;;;0.73;0.73;;;0.50;99.90;;;;;;5033258;28;20210;-74
2022/03/01 01:57:23;;;;;;;1.53;1.43;;;0.60;99.90;;;;;;5033460;28;20192;-75
2022/03/01 01:59:50;;;;;;;3.60;1.83;;;0.70;99.90;;;;;;5038109;28;20265;-77
2022/03/01 02:02:18;;;;;;;1.60;1.50;;;0.80;99.90;;;;;;5020007;28;20534;-75
2022/03/01 02:04:44;;;;;;;0.40;0.40;;;0.70;99.90;;;;;;5036965;28;20178;-75
2022/03/01 02:07:11;;;;;;;1.10;1.10;;;0.80;99.90;;;;;;5035016;28;20611;-77
2022/03/01 02:09:37;;;;;;;3.03;2.73;;;0.70;99.90;;;;;;5034687;28;20209;-76
2022/03/01 02:12:03;;;;;;;2.80;2.20;;;0.70;99.90;;;;;;5034761;28;20568;-76
2022/03/01 02:14:33;;;;;;;0.97;0.97;;;0.80;99.90;;;;;;5034205;28;20198;-76
2022/03/01 02:17:00;;;;;;;4.23;2.70;;;0.90;99.90;;;;;;5034214;28;20174;-76
2022/03/01 02:19:27;;;;;;;0.97;0.97;;;0.90;99.90;;;;;;5033136;28;20186;-76
2022/03/01 02:21:56;;;;;;;1.57;1.40;;;0.80;99.90;;;;;;5033166;28;20305;-76
2022/03/01 02:24:24;;;;;;;2.80;1.23;;;0.40;99.90;;;;;;5033678;28;20189;-75
2022/03/01 02:26:57;;;;;;;1.77;1.67;;;0.40;99.90;;;;;;5033891;28;20174;-75
2022/03/01 02:29:24;;;;;;;1.73;1.63;;;0.50;99.90;;;;;;5032756;28;20232;-75
2022/03/01 02:31:50;;;;;;;2.90;1.07;;;0.60;99.90;;;;;;5032395;28;20574;-76
2022/03/01 02:34:17;;;;;;;4.20;3.77;;;0.60;99.90;;;;;;5014819;28;20201;-76
2022/03/01 02:36:42;;;;;;;0.37;0.37;;;0.60;99.90;;;;;;5032654;28;20205;-74
2022/03/01 02:39:08;;;;;;;2.93;2.67;;;0.60;99.90;;;;;;5013995;28;20259;-74
2022/03/01 02:41:37;;;;;;;3.20;2.10;;;0.70;99.90;;;;;;5016948;28;20614;-74
2022/03/01 02:44:03;;;;;;;3.73;2.63;;;0.90;99.90;;;;;;5032145;28;20186;-74
2022/03/01 02:46:28;;;;;;;2.63;2.43;;;0.90;99.90;;;;;;5032410;28;20181;-73
2022/03/01 02:48:54;;;;;;;2.90;2.80;;;1.00;99.90;;;;;;5032513;28;20182;-74
2022/03/01 02:51:20;;;;;;;6.67;3.57;;;1.00;99.90;;;;;;5014443;28;20221;-74
2022/03/01 02:53:45;;;;;;;0.50;0.50;;;1.00;99.90;;;;;;5014073;28;20196;-73
2022/03/01 02:56:11;;;;;;;0.67;0.50;;;1.10;99.90;;;;;;5031951;28;20301;-73
2022/03/01 02:58:36;;;;;;;1.03;1.03;;;1.10;99.90;;;;;;5014019;28;20181;-73
2022/03/01 03:01:02;;;;;;;1.37;1.10;;;1.20;99.90;;;;;;5031415;28;20276;-73
2022/03/01 03:03:28;;;;;;;2.67;1.60;;;1.20;99.90;;;;;;5031671;28;20185;-74
2022/03/01 03:05:53;;;;;;;1.20;1.20;;;1.20;99.90;;;;;;5032221;28;20178;-74
2022/03/01 03:08:19;;;;;;;0.30;0.30;;;1.10;99.90;;;;;;5014076;28;20190;-74
2022/03/01 03:10:44;;;;;;;4.10;1.83;;;1.20;99.90;;;;;;5014489;28;20771;-74
2022/03/01 03:13:10;;;;;;;4.77;4.30;;;1.20;99.90;;;;;;5032417;28;20519;-74
2022/03/01 03:15:37;;;;;;;0.20;0.20;;;1.20;99.90;;;;;;5014002;28;20774;-73
2022/03/01 03:18:03;;;;;;;3.60;3.23;;;1.30;99.90;;;;;;5031898;28;20206;-74
2022/03/01 03:20:29;;;;;;;1.97;1.80;;;1.40;99.90;;;;;;5031753;28;20233;-72
2022/03/01 03:22:54;;;;;;;5.23;2.90;;;1.40;99.90;;;;;;5031314;28;20174;-74
2022/03/01 03:25:20;;;;;;;3.37;3.07;;;1.50;99.90;;;;;;5014163;28;20200;-74
2022/03/01 03:27:45;;;;;;;1.90;1.33;;;1.50;99.90;;;;;;5031381;28;20181;-74
2022/03/01 03:30:11;;;;;;;1.90;1.80;;;1.40;99.90;;;;;;5013777;28;20182;-74
2022/03/01 03:32:37;;;;;;;1.87;1.43;;;1.50;99.90;;;;;;5013748;28;20185;-75
2022/03/01 03:35:04;;;;;;;1.37;1.10;;;1.50;99.90;;;;;;5032247;28;20202;-74
2022/03/01 03:37:30;;;;;;;0.93;0.93;;;1.60;99.90;;;;;;5031966;28;20181;-74
2022/03/01 03:39:55;;;;;;;0.73;0.73;;;1.60;99.90;;;;;;5031809;28;20186;-75
2022/03/01 03:42:21;;;;;;;4.13;3.63;;;1.60;99.90;;;;;;5015936;28;20243;-75
2022/03/01 03:44:47;;;;;;;0.33;0.33;;;1.60;99.90;;;;;;5014612;28;20197;-76
2022/03/01 03:47:12;;;;;;;2.53;2.43;;;1.50;99.90;;;;;;5031479;28;20213;-74
2022/03/01 03:49:38;;;;;;;0.47;0.47;;;1.40;99.90;;;;;;5031613;28;20186;-75
2022/03/01 03:52:05;;;;;;;8.37;1.73;;;1.40;99.90;;;;;;5031238;28;20262;-75
2022/03/01 03:54:31;;;;;;;0.97;0.70;;;1.30;99.90;;;;;;5031566;28;20211;-75
2022/03/01 03:56:56;;;;;;;0.57;0.57;;;1.20;99.90;;;;;;5032004;28;20182;-74
2022/03/01 03:59:22;;;;;;;1.70;1.60;;;1.20;99.90;;;;;;5031366;28;20224;-74
2022/03/01 04:01:47;;;;;;;2.43;2.30;;;1.10;99.90;;;;;;5032973;28;20202;-75
2022/03/01 04:04:13;;;;;;;1.30;1.30;;;1.00;99.90;;;;;;5017391;28;20216;-75
2022/03/01 04:06:39;;;;;;;2.00;1.90;;;1.00;99.90;;;;;;5017166;28;20653;-75
2022/03/01 04:09:05;;;;;;;0.77;0.70;;;1.00;99.90;;;;;;5035751;28;20563;-74
2022/03/01 04:11:31;;;;;;;2.93;0.97;;;0.90;99.90;;;;;;5037724;28;20206;-74
2022/03/01 04:13:57;;;;;;;1.63;1.63;;;0.90;99.90;;;;;;5034613;28;20209;-74
2022/03/01 04:16:23;;;;;;;2.43;1.30;;;0.90;99.90;;;;;;5034711;28;20205;-75
2022/03/01 04:18:48;;;;;;;1.73;1.23;;;0.90;99.90;;;;;;5038062;28;20191;-75
2022/03/01 04:21:14;;;;;;;4.90;3.77;;;0.80;99.90;;;;;;5034242;28;20218;-73
2022/03/01 04:23:40;;;;;;;1.37;0.93;;;0.80;99.90;;;;;;5038244;28;20238;-75
2022/03/01 04:26:06;;;;;;;2.13;2.00;;;0.90;99.90;;;;;;5022642;28;20209;-75
2022/03/01 04:28:32;;;;;;;1.17;0.97;;;0.90;99.90;;;;;;5017357;28;20415;-75
2022/03/01 04:30:58;;;;;;;1.80;1.70;;;0.90;99.90;;;;;;5036570;28;20205;-75
2022/03/01 04:33:23;;;;;;;3.60;2.80;;;1.00;99.90;;;;;;5016961;28;20215;-75
2022/03/01 04:35:49;;;;;;;2.53;2.33;;;1.00;99.90;;;;;;5034010;28;20673;-74
2022/03/01 04:38:15;;;;;;;2.13;2.03;;;1.10;99.90;;;;;;5033929;28;20672;-73
2022/03/01 04:40:41;;;;;;;1.80;1.70;;;1.10;99.90;;;;;;5018281;28;20252;-75
2022/03/01 04:43:06;;;;;;;0.73;0.73;;;1.10;99.90;;;;;;5038257;28;20178;-74
2022/03/01 04:45:32;;;;;;;2.63;0.83;;;1.10;99.90;;;;;;5040085;28;20199;-74
2022/03/01 04:47:58;;;;;;;3.93;3.60;;;1.20;99.90;;;;;;5034548;28;20186;-74
2022/03/01 04:50:24;;;;;;;0.97;0.97;;;1.20;99.90;;;;;;5033972;28;20221;-74
2022/03/01 04:52:49;;;;;;;3.80;2.63;;;1.20;99.90;;;;;;5015723;28;20182;-75
2022/03/01 04:55:15;;;;;;;0.43;0.43;;;1.30;99.90;;;;;;5033598;28;20649;-76
2022/03/01 04:57:41;;;;;;;0.60;0.60;;;1.30;99.90;;;;;;5033882;28;20182;-76
2022/03/01 05:00:10;;;;;;;0.10;0.10;;;1.40;99.90;;;;;;5033953;28;20182;-76
2022/03/01 05:02:40;;;;;;;1.57;1.47;;;1.30;99.90;;;;;;5034201;28;20174;-75
2022/03/01 05:05:10;;;;;;;3.13;2.93;;;1.30;99.90;;;;;;5033923;28;20182;-75
2022/03/01 05:07:40;;;;;;;0.30;0.30;;;1.20;99.90;;;;;;5016385;28;20182;-75
2022/03/01 05:10:07;;;;;;;0.63;0.63;;;1.20;99.90;;;;;;5033311;28;20174;-75
2022/03/01 05:12:39;;;;;;;0.73;0.33;;;1.20;99.90;;;;;;5031932;28;20170;-75
2022/03/01 05:15:05;;;;;;;0.30;0.30;;;1.30;99.90;;;;;;5032669;28;20252;-75
2022/03/01 05:17:31;;;;;;;1.70;1.60;;;1.20;99.90;;;;;;5033243;28;20643;-75
2022/03/01 05:19:56;;;;;;;1.83;1.70;;;1.20;99.90;;;;;;5015655;28;20174;-75
2022/03/01 05:22:22;;;;;;;2.37;1.33;;;1.20;99.90;;;;;;5033798;28;20237;-74
2022/03/01 05:24:47;;;;;;;0.20;0.20;;;1.20;99.90;;;;;;5015395;28;20232;-75
2022/03/01 05:27:14;;;;;;;0.93;0.93;;;1.20;99.90;;;;;;5033018;28;20182;-74
2022/03/01 05:29:40;;;;;;;0.40;0.40;;;1.20;99.90;;;;;;5033062;28;20177;-74
2022/03/01 05:32:06;;;;;;;0.53;0.23;;;1.20;99.90;;;;;;5033051;28;20206;-75
2022/03/01 05:34:32;;;;;;;1.03;0.93;;;1.20;99.90;;;;;;5029955;28;20197;-75
2022/03/01 05:36:57;;;;;;;0.33;0.33;;;1.30;99.90;;;;;;5014979;28;20182;-76
2022/03/01 05:39:23;;;;;;;1.43;0.83;;;1.20;99.90;;;;;;5030687;28;20166;-75
2022/03/01 05:41:49;;;;;;;1.30;1.23;;;1.30;99.90;;;;;;5018017;28;20272;-75
2022/03/01 05:44:14;;;;;;;0.83;0.83;;;1.30;99.90;;;;;;5032416;28;20592;-75
2022/03/01 05:46:40;;;;;;;1.50;1.27;;;1.30;99.90;;;;;;5033833;28;20185;-76
2022/03/01 05:49:07;;;;;;;5.50;3.73;;;1.30;99.90;;;;;;5043907;28;20272;-75
2022/03/01 05:51:33;;;;;;;0.80;0.80;;;1.20;99.90;;;;;;5018050;28;20289;-75
2022/03/01 05:53:58;;;;;;;1.00;1.00;;;1.10;99.90;;;;;;5034660;28;20600;-75
2022/03/01 05:56:24;;;;;;;0.10;0.10;;;1.10;99.90;;;;;;5019390;28;20182;-76
2022/03/01 05:58:49;;;;;;;3.13;2.97;;;1.00;99.90;;;;;;5013782;28;20186;-76
2022/03/01 06:01:15;;;;;;;0.80;0.80;;;1.10;99.90;;;;;;5014616;28;20189;-75
2022/03/01 06:03:40;;;;;;;0.20;0.20;;;1.10;99.90;;;;;;5036166;28;20178;-76
2022/03/01 06:06:06;;;;;;;1.70;1.00;;;1.10;99.90;;;;;;5034624;28;20232;-76
2022/03/01 06:08:32;;;;;;;0.57;0.47;;;1.10;99.90;;;;;;5031993;28;20538;-75
2022/03/01 06:10:57;;;;;;;5.33;0.87;;;1.10;99.90;;;;;;5033019;28;20570;-75
2022/03/01 06:13:23;;;;;;;1.70;1.60;;;1.20;99.90;;;;;;5014864;28;20186;-75
2022/03/01 06:15:49;;;;;;;1.57;1.10;;;1.20;99.90;;;;;;5021105;28;20208;-76
2022/03/01 06:18:15;;;;;;;1.50;1.40;;;1.10;99.90;;;;;;5024851;28;20181;-76
2022/03/01 06:20:41;;;;;;;0.80;0.80;;;1.20;99.90;;;;;;5041268;28;20580;-78
2022/03/01 06:23:06;;;;;;;0.30;0.30;;;1.20;99.90;;;;;;5048028;28;20256;-78
2022/03/01 06:25:32;;;;;;;0.20;0.20;;;1.10;99.90;;;;;;5028968;28;20649;-78
2022/03/01 06:27:58;;;;;;;0.30;0.30;;;1.10;99.90;;;;;;5039480;28;20209;-77
2022/03/01 06:30:24;;;;;;;2.53;1.70;;;1.10;99.90;;;;;;5043124;28;20212;-78
2022/03/01 06:32:49;;;;;;;0.30;0.30;;;1.20;99.90;;;;;;5028146;28;20268;-78
2022/03/01 06:35:15;;;;;;;0.47;0.47;;;1.20;99.90;;;;;;5044579;28;20236;-78
2022/03/01 06:37:41;;;;;;;2.47;2.00;;;1.20;99.90;;;;;;5043525;28;20219;-79
2022/03/01 06:40:07;;;;;;;0.80;0.80;;;1.30;99.90;;;;;;5047678;28;20176;-78
2022/03/01 06:42:33;;;;;;;2.87;2.07;;;1.40;99.90;;;;;;5042905;28;20179;-79
2022/03/01 06:44:58;;;;;;;0.87;0.87;;;1.40;99.90;;;;;;5043132;28;20611;-79
2022/03/01 06:47:24;;;;;;;0.77;0.77;;;1.50;99.90;;;;;;5016178;28;20201;-76
2022/03/01 06:49:51;;;;;;;0.63;0.63;;;1.50;99.90;;;;;;5015133;28;20193;-76
2022/03/01 06:52:16;;;;;;;5.00;1.23;;;1.60;99.90;;;;;;5036390;28;20201;-75
2022/03/01 06:54:42;;;;;;;1.07;0.87;;;1.60;99.90;;;;;;5034431;28;20206;-76
2022/03/01 06:57:08;;;;;;;0.40;0.40;;;1.60;99.90;;;;;;5033519;28;20182;-76
2022/03/01 06:59:34;;;;;;;2.73;2.43;;;1.70;99.90;;;;;;5015971;28;20253;-76
2022/03/01 07:01:59;;;;;;;0.53;0.53;;;1.70;99.90;;;;;;5035750;28;20254;-76
2022/03/01 07:04:25;;;;;;;2.53;1.17;;;1.80;99.90;;;;;;5039372;28;20593;-77
2022/03/01 07:06:51;;;;;;;0.40;0.40;;;1.80;99.90;;;;;;5044735;28;20283;-77
2022/03/01 07:09:16;;;;;;;0.80;0.80;;;1.70;99.90;;;;;;5017458;28;20185;-76
2022/03/01 07:11:42;;;;;;;0.10;0.10;;;1.70;99.90;;;;;;5032400;28;20259;-76
2022/03/01 07:14:07;;;;;;;2.03;1.93;;;1.70;99.90;;;;;;5033487;28;20185;-77
2022/03/01 07:16:33;;;;;;;2.93;2.73;;;1.70;99.90;;;;;;5016130;28;20643;-77
2022/03/01 07:18:59;;;;;;;2.83;0.80;;;1.80;99.90;;;;;;5042240;28;20184;-76
2022/03/01 07:21:25;;;;;;;1.53;1.47;;;1.70;99.90;;;;;;5063229;22;20218;-74
2022/03/01 07:23:50;;;;;;;0.20;0.20;;;1.80;99.90;;;;;;5050492;28;20656;-76
2022/03/01 07:26:16;;;;;;;0.93;0.67;;;1.90;99.90;;;;;;5050243;28;20180;-76
2022/03/01 07:28:42;;;;;;;0.37;0.37;;;1.90;99.90;;;;;;5050613;28;20675;-75
2022/03/01 07:31:07;;;;;;;0.60;0.60;;;2.00;99.90;;;;;;5050366;28;20271;-75
2022/03/01 07:33:33;;;;;;;2.47;2.27;;;1.90;99.90;;;;;;5049951;28;20254;-75
2022/03/01 07:36:00;;;;;;;3.13;2.83;;;1.90;99.90;;;;;;5051361;28;20215;-76
2022/03/01 07:38:25;;;;;;;0.40;0.40;;;2.00;99.90;;;;;;5054618;28;20178;-76
2022/03/01 07:40:51;;;;;;;0.30;0.30;;;2.00;99.90;;;;;;5053825;28;20206;-75
2022/03/01 07:43:16;;;;;;;1.03;1.03;;;2.10;99.90;;;;;;5052794;28;20613;-75
2022/03/01 07:45:42;;;;;;;2.73;2.63;;;2.10;99.90;;;;;;5052664;28;20560;-76
2022/03/01 07:48:10;;;;;;;2.90;2.67;;;2.20;99.90;;;;;;5054414;28;20518;-75
2022/03/01 07:50:36;;;;;;;1.43;1.20;;;2.20;99.90;;;;;;5054117;28;20231;-75
2022/03/01 07:53:02;;;;;;;9.97;1.50;;;2.20;99.90;;;;;;5054090;28;20610;-77
2022/03/01 07:55:29;;;;;;;2.27;1.50;;;2.30;99.90;;;;;;5053943;28;20218;-76
2022/03/01 07:57:54;;;;;;;1.27;1.27;;;2.30;99.90;;;;;;5052910;28;20587;-76
2022/03/01 08:00:21;;;;;;;7.00;3.87;;;2.30;99.90;;;;;;5053880;28;20177;-75
2022/03/01 08:02:47;;;;;;;3.13;2.10;;;2.50;99.90;;;;;;5052047;28;20197;-75
2022/03/01 08:05:13;;;;;;;2.83;2.63;;;2.50;99.90;;;;;;5053940;28;20184;-75
2022/03/01 08:07:38;;;;;;;1.43;1.33;;;2.60;99.90;;;;;;5054314;28;20209;-76
2022/03/01 08:10:04;;;;;;;5.10;3.30;;;2.60;99.90;;;;;;5051499;28;20179;-75
2022/03/01 08:12:30;;;;;;;0.63;0.63;;;2.60;99.90;;;;;;5052982;28;20193;-76
2022/03/01 08:14:56;;;;;;;1.63;1.53;;;2.70;99.90;;;;;;5051627;28;20293;-76
2022/03/01 08:17:21;;;;;;;0.80;0.80;;;2.70;99.90;;;;;;5053386;28;20469;-75
2022/03/01 08:19:48;;;;;;;1.63;1.43;;;2.80;99.90;;;;;;5053845;28;20228;-74
2022/03/01 08:22:13;;;;;;;0.57;0.57;;;2.90;99.90;;;;;;5052909;28;20210;-76
2022/03/01 08:24:39;;;;;;;2.23;0.70;;;3.00;99.90;;;;;;5053444;28;20194;-76
2022/03/01 08:27:05;;;;;;;1.50;1.50;;;3.20;99.90;;;;;;5053840;28;20176;-76
2022/03/01 08:29:30;;;;;;;1.63;1.53;;;3.50;99.90;;;;;;5053042;28;20697;-76
2022/03/01 08:31:56;;;;;;;0.87;0.87;;;3.70;99.90;;;;;;5052514;28;20562;-77
2022/03/01 08:34:22;;;;;;;7.43;2.40;;;3.90;99.90;;;;;;5053134;28;20189;-76
2022/03/01 08:36:48;;;;;;;4.17;0.70;;;4.00;99.90;;;;;;5053048;28;20220;-77
2022/03/01 08:39:13;;;;;;;2.47;2.07;;;4.10;99.90;;;;;;5052807;28;20180;-76
2022/03/01 08:41:39;;;;;;;2.43;2.27;;;4.30;99.90;;;;;;5052964;28;20713;-77
2022/03/01 08:44:05;;;;;;;2.50;1.00;;;4.50;99.90;;;;;;5051750;28;20696;-75
2022/03/01 08:46:30;;;;;;;1.30;1.30;;;4.70;99.90;;;;;;5052547;28;20181;-76
2022/03/01 08:48:56;;;;;;;3.50;1.17;;;4.90;99.90;;;;;;5052840;28;20682;-76
2022/03/01 08:51:22;;;;;;;14.40;1.97;;;5.00;99.90;;;;;;5052404;28;20297;-76
2022/03/01 08:53:49;;;;;;;1.17;1.17;;;5.00;99.90;;;;;;5053136;28;20251;-76
2022/03/01 08:56:15;;;;;;;15.03;4.13;;;5.00;99.90;;;;;;5051736;28;20201;-76
2022/03/01 08:58:42;;;;;;;1.70;0.93;;;5.00;99.90;;;;;;5051673;28;20177;-75
2022/03/01 09:01:07;;;;;;;7.40;4.53;;;5.00;99.90;;;;;;5053269;28;20203;-76
2022/03/01 09:03:33;;;;;;;2.73;2.53;;;5.10;99.90;;;;;;5052774;28;20259;-74
2022/03/01 09:05:59;;;;;;;5.60;2.37;;;5.10;99.90;;;;;;5052819;28;20176;-77
2022/03/01 09:08:25;;;;;;;1.70;1.60;;;5.10;99.90;;;;;;5051721;28;20184;-75
2022/03/01 09:10:50;;;;;;;1.90;1.80;;;5.10;99.90;;;;;;5052603;28;20201;-75
2022/03/01 09:13:16;;;;;;;2.73;2.47;;;5.10;99.90;;;;;;5052171;28;20188;-76
2022/03/01 09:15:41;;;;;;;5.73;2.80;;;5.10;99.90;;;;;;5052826;28;20737;-76
2022/03/01 09:18:07;;;;;;;6.90;3.00;;;5.20;99.90;;;;;;5052695;28;20682;-76
2022/03/01 09:20:33;;;;;;;2.70;2.47;;;5.20;99.90;;;;;;5051227;28;20686;-75
2022/03/01 09:23:00;;;;;;;1.07;1.07;;;5.30;99.90;;;;;;5052354;28;20181;-75
2022/03/01 09:25:26;;;;;;;2.73;1.83;;;5.30;99.90;;;;;;5052632;28;20173;-76
2022/03/01 09:27:51;;;;;;;2.63;1.23;;;5.30;99.90;;;;;;5050799;28;20280;-76
2022/03/01 09:30:18;;;;;;;2.70;0.73;;;5.30;99.90;;;;;;5052363;28;20224;-76
2022/03/01 09:32:44;;;;;;;2.93;0.97;;;5.30;99.90;;;;;;5051999;28;20335;-74
2022/03/01 09:35:10;;;;;;;6.03;2.77;;;5.20;99.90;;;;;;5052554;28;20204;-73
2022/03/01 09:37:36;;;;;;;2.80;2.47;;;5.20;99.90;;;;;;5050801;28;20177;-74
2022/03/01 09:40:04;;;;;;;3.00;1.27;;;5.10;99.90;;;;;;5052196;28;20226;-75
2022/03/01 09:42:31;;;;;;;0.20;0.20;;;5.00;99.90;;;;;;5051696;28;20201;-75
2022/03/01 09:44:58;;;;;;;2.33;1.73;;;4.90;99.90;;;;;;5052071;28;20596;-74
2022/03/01 09:47:24;;;;;;;0.47;0.43;;;4.80;99.90;;;;;;5052117;28;20189;-76
2022/03/01 09:49:51;;;;;;;8.40;3.08;;;4.80;99.90;;;;;;5051625;28;20454;-75
2022/03/01 09:52:17;;;;;;;1.00;1.00;;;4.80;99.90;;;;;;5051476;28;20197;-75
2022/03/01 09:54:44;;;;;;;0.73;0.73;;;5.10;99.90;;;;;;5050396;28;20288;-75
2022/03/01 09:57:13;;;;;;;1.23;1.20;;;5.30;99.90;;;;;;5051890;28;20189;-76
2022/03/01 09:59:38;;;;;;;0.50;0.50;;;5.90;99.90;;;;;;5051437;28;20181;-76
2022/03/01 10:02:04;;;;;;;1.73;1.20;;;5.90;99.90;;;;;;5050252;28;20197;-76
2022/03/01 10:04:29;;;;;;;1.50;1.47;;;6.30;99.90;;;;;;5051877;28;20189;-76
2022/03/01 10:06:55;;;;;;;1.77;1.47;;;6.60;99.90;;;;;;5051778;28;20208;-76
2022/03/01 10:09:29;;;;;;;11.33;3.20;;;6.90;99.90;;;;;;5051672;28;20181;-76
2022/03/01 10:11:54;;;;;;;2.10;2.00;;;7.00;99.90;;;;;;5051263;28;20307;-76
2022/03/01 10:14:31;;;;;;;2.40;2.20;;;7.00;99.90;;;;;;5050248;28;20803;-76
2022/03/01 10:16:57;;;;;;;2.10;1.70;;;7.20;99.90;;;;;;5051676;28;20181;-76
2022/03/01 10:19:23;;;;;;;2.67;0.90;;;7.50;99.90;;;;;;5051690;28;20174;-76
2022/03/01 10:22:01;;;;;;;1.23;1.13;;;7.90;99.90;;;;;;5050717;28;20215;-76
2022/03/01 10:24:27;;;;;;;1.03;1.03;;;8.10;99.90;;;;;;5051737;28;20234;-75
2022/03/01 10:27:05;;;;;;;4.40;2.93;;;8.30;99.90;;;;;;5051321;28;20199;-76
2022/03/01 10:29:31;;;;;;;2.77;2.57;;;8.30;99.90;;;;;;5050130;28;20258;-76
2022/03/01 10:32:00;;;;;;;7.83;2.70;;;8.50;99.90;;;;;;5050551;28;20726;-76
2022/03/01 10:34:29;;;;;;;1.37;1.37;;;8.30;99.90;;;;;;5050944;28;20230;-76
2022/03/01 10:36:55;;;;;;;5.77;1.70;;;7.90;99.90;;;;;;5051005;28;20786;-76
2022/03/01 10:39:30;;;;;;;2.53;1.23;;;7.70;99.90;;;;;;5051445;28;20264;-76
2022/03/01 10:41:56;;;;;;;2.67;1.70;;;7.70;99.90;;;;;;5050781;28;20250;-76
2022/03/01 10:44:27;;;;;;;4.67;4.07;;;7.70;99.90;;;;;;5051397;28;20184;-76
2022/03/01 10:46:59;;;;;;;4.73;2.10;;;7.70;99.90;;;;;;5050516;28;20187;-76
2022/03/01 10:49:26;;;;;;;1.30;1.27;;;7.60;99.90;;;;;;5051098;28;20176;-75
2022/03/01 10:51:55;;;;;;;4.03;1.10;;;7.50;99.90;;;;;;5050668;28;20250;-76
2022/03/01 10:54:25;;;;;;;2.07;1.40;;;7.40;99.90;;;;;;5050801;28;20181;-76
2022/03/01 10:56:53;;;;;;;1.73;1.57;;;7.50;99.90;;;;;;5050621;28;20230;-76
2022/03/01 10:59:19;;;;;;;4.83;2.00;;;7.40;99.90;;;;;;5051122;28;20185;-76
2022/03/01 11:01:45;;;;;;;5.57;5.00;;;7.50;99.90;;;;;;5050721;28;20699;-76
2022/03/01 11:04:11;;;;;;;2.40;2.20;;;7.60;99.90;;;;;;5049766;28;20246;-76
2022/03/01 11:06:37;;;;;;;1.20;1.20;;;7.50;99.90;;;;;;5050531;28;20713;-76
2022/03/01 11:09:05;;;;;;;1.57;1.47;;;7.60;99.90;;;;;;5049206;28;20264;-76
2022/03/01 11:11:32;;;;;;;12.53;2.37;;;7.70;99.90;;;;;;5051697;28;20204;-76
2022/03/01 11:13:58;;;;;;;2.37;2.17;;;7.80;99.90;;;;;;5054791;28;20265;-75
2022/03/01 11:16:32;;;;;;;4.37;1.77;;;7.80;99.90;;;;;;5053343;28;20200;-76
2022/03/01 11:19:38;;;;;;;15.80;2.33;;;7.90;99.90;;;;;;5053686;28;20183;-75
2022/03/01 11:22:06;;;;;;;2.03;1.87;;;8.10;99.90;;;;;;5054517;28;20722;-76
2022/03/01 11:24:33;;;;;;;3.10;2.67;;;8.20;99.90;;;;;;5054053;28;20177;-76
2022/03/01 11:27:07;;;;;;;29.07;4.63;;;8.30;99.90;;;;;;5054702;28;20181;-76
2022/03/01 11:29:38;;;;;;;1.10;0.97;;;8.30;99.90;;;;;;5054814;28;20188;-76
2022/03/01 11:32:13;;;;;;;1.17;0.70;;;8.40;99.90;;;;;;5053361;28;20209;-76
2022/03/01 11:34:39;;;;;;;3.90;1.30;;;8.60;99.90;;;;;;5054504;28;20207;-75
2022/03/01 11:37:16;;;;;;;3.37;3.07;;;8.60;99.90;;;;;;5054716;28;20203;-75
2022/03/01 11:39:42;;;;;;;2.20;1.93;;;8.50;99.90;;;;;;5055435;28;20177;-76
2022/03/01 11:42:17;;;;;;;0.43;0.43;;;8.40;99.90;;;;;;5054603;28;20688;-75
2022/03/01 11:44:48;;;;;;;1.70;1.63;;;8.40;99.90;;;;;;5053172;28;20271;-76
2022/03/01 11:47:25;;;;;;;2.50;2.30;;;8.40;99.90;;;;;;5055593;28;20199;-76
2022/03/01 11:49:51;;;;;;;1.60;1.60;;;8.80;99.90;;;;;;5063084;28;20193;-76
2022/03/01 11:52:22;;;;;;;1.67;1.37;;;8.90;99.90;;;;;;5053450;28;20200;-75
2022/03/01 11:54:50;;;;;;;2.50;2.23;;;8.80;99.90;;;;;;5051988;28;20224;-76
2022/03/01 11:57:17;;;;;;;1.27;0.77;;;8.60;99.90;;;;;;5053293;28;20235;-77
2022/03/01 11:59:44;;;;;;;1.37;1.27;;;8.50;99.90;;;;;;5052543;28;20258;-77
2022/03/01 12:02:11;;;;;;;5.23;1.77;;;8.50;99.90;;;;;;5053567;28;20193;-76
2022/03/01 12:04:48;;;;;;;2.20;1.73;;;8.50;99.90;;;;;;5053004;28;20620;-77
2022/03/01 12:07:22;;;;;;;8.20;2.93;;;8.60;99.90;;;;;;5052396;28;20306;-77
2022/03/01 12:09:59;;;;;;;6.53;3.43;;;8.60;99.90;;;;;;5052680;28;20672;-75
2022/03/01 12:12:54;;;;;;;1.10;1.10;;;8.60;99.90;;;;;;5053979;28;20209;-76
2022/03/01 12:15:34;;;;;;;0.40;0.40;;;8.70;99.90;;;;;;5052693;28;20652;-77
2022/03/01 12:18:10;;;;;;;2.20;2.03;;;8.80;99.90;;;;;;5052356;28;20190;-77
2022/03/01 12:20:44;;;;;;;0.20;0.20;;;8.90;99.90;;;;;;5053709;28;20183;-77
2022/03/01 12:23:11;;;;;;;1.20;1.20;;;8.90;99.90;;;;;;5051522;28;20175;-77
2022/03/01 12:25:39;;;;;;;1.20;1.20;;;9.20;99.90;;;;;;5053737;28;20217;-77
2022/03/01 12:28:08;;;;;;;5.00;2.30;;;9.40;99.90;;;;;;5053688;28;20169;-77
2022/03/01 12:30:39;;;;;;;6.93;2.60;;;9.50;99.90;;;;;;5053352;28;20177;-77
2022/03/01 12:33:12;;;;;;;0.90;0.90;;;9.80;99.90;;;;;;5053550;28;20176;-76
2022/03/01 12:35:38;;;;;;;1.17;1.17;;;10.30;99.90;;;;;;5052275;28;20208;-76
2022/03/01 12:38:12;;;;;;;1.50;1.40;;;10.10;99.90;;;;;;5053585;28;20181;-76
2022/03/01 12:40:39;;;;;;;1.37;1.30;;;9.80;99.90;;;;;;5052026;28;20235;-76
2022/03/01 12:43:07;;;;;;;1.80;1.70;;;10.10;99.90;;;;;;5052946;28;20173;-77
2022/03/01 12:45:41;;;;;;;3.23;3.03;;;10.20;99.90;;;;;;5053385;28;20177;-76
2022/03/01 12:48:10;;;;;;;1.30;1.20;;;10.30;99.90;;;;;;5053608;28;20201;-76
2022/03/01 12:50:46;;;;;;;1.43;0.90;;;10.20;99.90;;;;;;5053007;28;20259;-76
2022/03/01 12:53:12;;;;;;;2.30;2.13;;;10.20;99.90;;;;;;5052936;28;20679;-76
2022/03/01 12:55:45;;;;;;;4.90;3.20;;;10.30;99.90;;;;;;5052900;28;20205;-76